This is the latest recevied weather packets stored in our database for station/object HA9OZD-19. If no packets are shown the sender has not sent any weather packets the latest 10 day(s).
| Time | Temp. | Humidity | Pressure | Rain* | Wind** | Luminosity | Snow |
|---|---|---|---|---|---|---|---|
| 1777659378 | 13.33° C | 39% | 1041.9 hPa | - | - | - | - |
| 1777652297 | 18.33° C | 27% | 1042 hPa | - | - | - | - |
| 1777648757 | 19.44° C | 26% | 1042.5 hPa | - | - | - | - |
| 1777645217 | 20° C | 25% | 1042.8 hPa | - | - | - | - |
| 1777638137 | 21.11° C | 23% | 1043.8 hPa | - | - | - | - |
| 1777634597 | 18.33° C | 26% | 1044.3 hPa | - | - | - | - |
| 1777631056 | 22.78° C | 21% | 1044.8 hPa | - | - | - | - |
| 1777629619 | 20.56° C | 23% | 1045 hPa | - | - | - | - |
| 1777626079 | 18.89° C | 23% | 1045.3 hPa | - | - | - | - |
| 1777622539 | 17.78° C | 30% | 1045.5 hPa | - | - | - | - |
| 1777618999 | 10.56° C | 43% | 1045.7 hPa | - | - | - | - |
| 1777615459 | 7.22° C | 50% | 1045.6 hPa | - | - | - | - |
| 1777608379 | 1.67° C | 55% | 1045.3 hPa | - | - | - | - |
| 1777604838 | 0.56° C | 55% | 1045.3 hPa | - | - | - | - |
| 1777601298 | 0.56° C | 54% | 1045 hPa | - | - | - | - |
| 1777583598 | 3.89° C | 42% | 1045 hPa | - | - | - | - |
| 1777580057 | 5.56° C | 37% | 1044.8 hPa | - | - | - | - |
| 1777569446 | 12.22° C | 24% | 1043.2 hPa | - | - | - | - |
| 1777569439 | 12.22° C | 24% | 1043.2 hPa | - | - | - | - |
| 1777562357 | 15.56° C | 19% | 1043 hPa | - | - | - | - |
| 1777558819 | 17.22° C | 18% | 1043.1 hPa | - | - | - | - |
| 1777544663 | 15.56° C | 22% | 1045.5 hPa | - | - | - | - |
| 1777544656 | 15.56° C | 22% | 1045.5 hPa | - | - | - | - |
| 1777543219 | 17.22° C | 21% | 1045.8 hPa | - | - | - | - |
| 1777536139 | 13.89° C | 25% | 1046.2 hPa | - | - | - | - |
* Rain since midnight (hover to see other rain measurements)
** Current wind speed in m/s (hover to see current wind gust speed)